sensor_id;sensor_type;location;lat;lon;timestamp;P1;durP1;ratioP1;P2;durP2;ratioP2
15385;SDS011;7791;47.246;9.648;2022-12-07T00:02:07;31.43;;;16.53;;
15385;SDS011;7791;47.246;9.648;2022-12-07T00:04:32;35.00;;;18.10;;
15385;SDS011;7791;47.246;9.648;2022-12-07T00:06:58;33.47;;;18.03;;
15385;SDS011;7791;47.246;9.648;2022-12-07T00:09:24;35.80;;;18.30;;
15385;SDS011;7791;47.246;9.648;2022-12-07T00:11:50;33.37;;;18.80;;
15385;SDS011;7791;47.246;9.648;2022-12-07T00:14:17;37.20;;;19.63;;
15385;SDS011;7791;47.246;9.648;2022-12-07T00:16:43;36.70;;;20.20;;
15385;SDS011;7791;47.246;9.648;2022-12-07T00:19:12;41.67;;;20.87;;
15385;SDS011;7791;47.246;9.648;2022-12-07T00:21:38;35.80;;;19.77;;
15385;SDS011;7791;47.246;9.648;2022-12-07T00:24:05;34.93;;;20.13;;
15385;SDS011;7791;47.246;9.648;2022-12-07T00:26:32;38.57;;;19.23;;
15385;SDS011;7791;47.246;9.648;2022-12-07T00:29:00;35.03;;;20.17;;
15385;SDS011;7791;47.246;9.648;2022-12-07T00:31:31;40.87;;;20.07;;
15385;SDS011;7791;47.246;9.648;2022-12-07T00:34:18;37.57;;;22.07;;
15385;SDS011;7791;47.246;9.648;2022-12-07T00:36:48;40.20;;;20.13;;
15385;SDS011;7791;47.246;9.648;2022-12-07T00:39:15;34.33;;;18.73;;
15385;SDS011;7791;47.246;9.648;2022-12-07T00:41:41;36.67;;;18.63;;
15385;SDS011;7791;47.246;9.648;2022-12-07T00:44:07;37.40;;;19.20;;
15385;SDS011;7791;47.246;9.648;2022-12-07T00:46:33;32.57;;;18.80;;
15385;SDS011;7791;47.246;9.648;2022-12-07T00:49:04;38.60;;;19.60;;
15385;SDS011;7791;47.246;9.648;2022-12-07T00:51:31;37.83;;;18.87;;
15385;SDS011;7791;47.246;9.648;2022-12-07T00:53:57;43.90;;;19.93;;
15385;SDS011;7791;47.246;9.648;2022-12-07T00:56:23;34.90;;;18.97;;
15385;SDS011;7791;47.246;9.648;2022-12-07T00:58:51;36.37;;;19.50;;
15385;SDS011;7791;47.246;9.648;2022-12-07T01:01:17;34.13;;;19.30;;
15385;SDS011;7791;47.246;9.648;2022-12-07T01:06:48;37.63;;;19.27;;
15385;SDS011;7791;47.246;9.648;2022-12-07T01:09:14;36.93;;;18.90;;
15385;SDS011;7791;47.246;9.648;2022-12-07T01:11:40;36.97;;;19.37;;
15385;SDS011;7791;47.246;9.648;2022-12-07T01:14:08;38.40;;;19.60;;
15385;SDS011;7791;47.246;9.648;2022-12-07T01:16:34;38.87;;;18.93;;
15385;SDS011;7791;47.246;9.648;2022-12-07T01:19:02;47.07;;;22.63;;
15385;SDS011;7791;47.246;9.648;2022-12-07T01:21:29;63.10;;;29.47;;
15385;SDS011;7791;47.246;9.648;2022-12-07T01:23:57;69.93;;;31.67;;
15385;SDS011;7791;47.246;9.648;2022-12-07T01:26:24;74.53;;;33.77;;
15385;SDS011;7791;47.246;9.648;2022-12-07T01:28:50;40.00;;;20.77;;
15385;SDS011;7791;47.246;9.648;2022-12-07T01:31:18;34.10;;;18.37;;
15385;SDS011;7791;47.246;9.648;2022-12-07T01:36:36;32.27;;;17.87;;
15385;SDS011;7791;47.246;9.648;2022-12-07T01:39:05;36.13;;;18.17;;
15385;SDS011;7791;47.246;9.648;2022-12-07T01:41:32;38.77;;;19.13;;
15385;SDS011;7791;47.246;9.648;2022-12-07T01:44:08;36.17;;;18.33;;
15385;SDS011;7791;47.246;9.648;2022-12-07T01:46:45;35.10;;;17.80;;
15385;SDS011;7791;47.246;9.648;2022-12-07T01:49:22;34.30;;;17.10;;
15385;SDS011;7791;47.246;9.648;2022-12-07T01:51:54;33.67;;;18.37;;
15385;SDS011;7791;47.246;9.648;2022-12-07T01:54:24;31.23;;;17.13;;
15385;SDS011;7791;47.246;9.648;2022-12-07T01:56:53;30.93;;;16.37;;
15385;SDS011;7791;47.246;9.648;2022-12-07T01:59:21;33.40;;;16.30;;
15385;SDS011;7791;47.246;9.648;2022-12-07T02:01:49;33.80;;;16.93;;
15385;SDS011;7791;47.246;9.648;2022-12-07T02:04:20;33.60;;;17.50;;
15385;SDS011;7791;47.246;9.648;2022-12-07T02:06:46;34.83;;;16.70;;
15385;SDS011;7791;47.246;9.648;2022-12-07T02:09:13;31.20;;;16.50;;
15385;SDS011;7791;47.246;9.648;2022-12-07T02:11:40;35.17;;;17.27;;
15385;SDS011;7791;47.246;9.648;2022-12-07T02:14:06;30.60;;;16.60;;
15385;SDS011;7791;47.246;9.648;2022-12-07T02:16:34;30.27;;;16.53;;
15385;SDS011;7791;47.246;9.648;2022-12-07T02:25:21;30.53;;;16.10;;
15385;SDS011;7791;47.246;9.648;2022-12-07T02:27:58;34.83;;;17.23;;
15385;SDS011;7791;47.246;9.648;2022-12-07T02:30:31;29.97;;;15.93;;
15385;SDS011;7791;47.246;9.648;2022-12-07T02:33:00;31.67;;;16.23;;
15385;SDS011;7791;47.246;9.648;2022-12-07T02:35:39;34.30;;;17.33;;
15385;SDS011;7791;47.246;9.648;2022-12-07T02:38:08;33.50;;;16.70;;
15385;SDS011;7791;47.246;9.648;2022-12-07T02:40:39;34.93;;;17.17;;
15385;SDS011;7791;47.246;9.648;2022-12-07T02:43:09;30.63;;;16.53;;
15385;SDS011;7791;47.246;9.648;2022-12-07T02:45:40;33.97;;;16.60;;
15385;SDS011;7791;47.246;9.648;2022-12-07T02:48:08;34.03;;;17.00;;
15385;SDS011;7791;47.246;9.648;2022-12-07T02:50:36;34.80;;;16.33;;
15385;SDS011;7791;47.246;9.648;2022-12-07T02:53:02;31.63;;;15.87;;
15385;SDS011;7791;47.246;9.648;2022-12-07T02:55:30;28.60;;;15.17;;
15385;SDS011;7791;47.246;9.648;2022-12-07T02:58:07;31.90;;;15.73;;
15385;SDS011;7791;47.246;9.648;2022-12-07T03:00:54;26.90;;;14.47;;
15385;SDS011;7791;47.246;9.648;2022-12-07T03:03:29;27.97;;;15.23;;
15385;SDS011;7791;47.246;9.648;2022-12-07T03:08:52;30.40;;;15.40;;
15385;SDS011;7791;47.246;9.648;2022-12-07T03:11:26;28.77;;;15.03;;
15385;SDS011;7791;47.246;9.648;2022-12-07T03:13:59;24.97;;;14.57;;
15385;SDS011;7791;47.246;9.648;2022-12-07T03:16:37;27.20;;;14.80;;
15385;SDS011;7791;47.246;9.648;2022-12-07T03:19:10;27.43;;;15.10;;
15385;SDS011;7791;47.246;9.648;2022-12-07T03:24:36;28.83;;;14.60;;
15385;SDS011;7791;47.246;9.648;2022-12-07T03:27:07;26.67;;;14.43;;
15385;SDS011;7791;47.246;9.648;2022-12-07T03:29:38;25.77;;;14.47;;
15385;SDS011;7791;47.246;9.648;2022-12-07T03:32:10;27.63;;;14.93;;
15385;SDS011;7791;47.246;9.648;2022-12-07T03:34:43;30.20;;;13.80;;
15385;SDS011;7791;47.246;9.648;2022-12-07T03:37:28;28.67;;;14.20;;
15385;SDS011;7791;47.246;9.648;2022-12-07T03:39:59;27.77;;;14.27;;
15385;SDS011;7791;47.246;9.648;2022-12-07T03:42:32;24.33;;;14.27;;
15385;SDS011;7791;47.246;9.648;2022-12-07T03:44:58;30.13;;;14.93;;
15385;SDS011;7791;47.246;9.648;2022-12-07T03:47:28;25.70;;;14.30;;
15385;SDS011;7791;47.246;9.648;2022-12-07T03:49:58;28.40;;;14.77;;
15385;SDS011;7791;47.246;9.648;2022-12-07T03:55:22;23.63;;;13.73;;
15385;SDS011;7791;47.246;9.648;2022-12-07T03:57:53;25.00;;;13.53;;
15385;SDS011;7791;47.246;9.648;2022-12-07T04:00:23;26.87;;;14.57;;
15385;SDS011;7791;47.246;9.648;2022-12-07T04:02:52;27.10;;;14.63;;
15385;SDS011;7791;47.246;9.648;2022-12-07T04:05:22;25.10;;;13.93;;
15385;SDS011;7791;47.246;9.648;2022-12-07T04:10:51;26.30;;;14.40;;
15385;SDS011;7791;47.246;9.648;2022-12-07T04:13:17;25.90;;;13.60;;
15385;SDS011;7791;47.246;9.648;2022-12-07T04:15:43;29.37;;;14.33;;
15385;SDS011;7791;47.246;9.648;2022-12-07T04:18:10;26.17;;;14.27;;
15385;SDS011;7791;47.246;9.648;2022-12-07T04:20:36;24.73;;;14.00;;
15385;SDS011;7791;47.246;9.648;2022-12-07T04:23:02;25.13;;;14.20;;
15385;SDS011;7791;47.246;9.648;2022-12-07T04:25:27;21.50;;;13.43;;
15385;SDS011;7791;47.246;9.648;2022-12-07T04:27:54;27.00;;;14.57;;
15385;SDS011;7791;47.246;9.648;2022-12-07T04:30:21;23.67;;;13.73;;
15385;SDS011;7791;47.246;9.648;2022-12-07T04:32:47;27.67;;;13.73;;
15385;SDS011;7791;47.246;9.648;2022-12-07T04:35:14;32.30;;;14.13;;
15385;SDS011;7791;47.246;9.648;2022-12-07T04:37:59;25.93;;;13.33;;
15385;SDS011;7791;47.246;9.648;2022-12-07T04:40:25;26.07;;;13.83;;
15385;SDS011;7791;47.246;9.648;2022-12-07T04:42:51;25.57;;;13.70;;
15385;SDS011;7791;47.246;9.648;2022-12-07T04:45:17;28.97;;;14.43;;
15385;SDS011;7791;47.246;9.648;2022-12-07T04:47:43;27.50;;;14.77;;
15385;SDS011;7791;47.246;9.648;2022-12-07T04:50:09;25.60;;;14.30;;
15385;SDS011;7791;47.246;9.648;2022-12-07T04:55:39;26.57;;;13.97;;
15385;SDS011;7791;47.246;9.648;2022-12-07T04:58:06;24.57;;;14.10;;
15385;SDS011;7791;47.246;9.648;2022-12-07T05:00:31;26.10;;;13.73;;
15385;SDS011;7791;47.246;9.648;2022-12-07T05:02:57;28.97;;;14.10;;
15385;SDS011;7791;47.246;9.648;2022-12-07T05:05:23;26.97;;;13.80;;
15385;SDS011;7791;47.246;9.648;2022-12-07T05:10:54;25.23;;;13.57;;
15385;SDS011;7791;47.246;9.648;2022-12-07T05:13:20;26.57;;;13.70;;
15385;SDS011;7791;47.246;9.648;2022-12-07T05:15:46;23.67;;;13.97;;
15385;SDS011;7791;47.246;9.648;2022-12-07T05:18:12;27.67;;;14.10;;
15385;SDS011;7791;47.246;9.648;2022-12-07T05:20:37;25.67;;;14.50;;
15385;SDS011;7791;47.246;9.648;2022-12-07T05:23:04;27.57;;;14.33;;
15385;SDS011;7791;47.246;9.648;2022-12-07T05:25:30;27.10;;;14.27;;
15385;SDS011;7791;47.246;9.648;2022-12-07T05:27:57;28.67;;;14.33;;
15385;SDS011;7791;47.246;9.648;2022-12-07T05:30:24;24.87;;;13.83;;
15385;SDS011;7791;47.246;9.648;2022-12-07T05:32:51;25.43;;;14.10;;
15385;SDS011;7791;47.246;9.648;2022-12-07T05:35:17;28.23;;;14.37;;
15385;SDS011;7791;47.246;9.648;2022-12-07T05:37:47;24.53;;;14.97;;
15385;SDS011;7791;47.246;9.648;2022-12-07T05:40:14;25.33;;;14.63;;
15385;SDS011;7791;47.246;9.648;2022-12-07T05:42:43;25.73;;;14.50;;
15385;SDS011;7791;47.246;9.648;2022-12-07T05:45:12;25.27;;;14.57;;
15385;SDS011;7791;47.246;9.648;2022-12-07T05:47:38;27.10;;;15.03;;
15385;SDS011;7791;47.246;9.648;2022-12-07T05:50:05;26.63;;;15.33;;
15385;SDS011;7791;47.246;9.648;2022-12-07T05:52:32;30.00;;;14.93;;
15385;SDS011;7791;47.246;9.648;2022-12-07T05:54:59;28.70;;;15.03;;
15385;SDS011;7791;47.246;9.648;2022-12-07T05:57:24;29.63;;;15.67;;
15385;SDS011;7791;47.246;9.648;2022-12-07T05:59:50;33.60;;;17.73;;
15385;SDS011;7791;47.246;9.648;2022-12-07T06:02:19;29.27;;;14.60;;
15385;SDS011;7791;47.246;9.648;2022-12-07T06:04:46;32.03;;;15.23;;
15385;SDS011;7791;47.246;9.648;2022-12-07T06:07:13;29.83;;;14.33;;
15385;SDS011;7791;47.246;9.648;2022-12-07T06:09:40;24.20;;;13.73;;
15385;SDS011;7791;47.246;9.648;2022-12-07T06:12:06;28.60;;;14.53;;
15385;SDS011;7791;47.246;9.648;2022-12-07T06:14:34;26.07;;;14.67;;
15385;SDS011;7791;47.246;9.648;2022-12-07T06:17:00;25.33;;;14.80;;
15385;SDS011;7791;47.246;9.648;2022-12-07T06:19:27;25.90;;;14.57;;
15385;SDS011;7791;47.246;9.648;2022-12-07T06:21:53;26.43;;;14.03;;
15385;SDS011;7791;47.246;9.648;2022-12-07T06:24:19;22.53;;;13.87;;
15385;SDS011;7791;47.246;9.648;2022-12-07T06:26:45;25.00;;;14.57;;
15385;SDS011;7791;47.246;9.648;2022-12-07T06:29:11;28.07;;;13.87;;
15385;SDS011;7791;47.246;9.648;2022-12-07T06:31:38;27.97;;;14.13;;
15385;SDS011;7791;47.246;9.648;2022-12-07T06:34:04;22.80;;;13.70;;
15385;SDS011;7791;47.246;9.648;2022-12-07T06:36:33;25.07;;;14.37;;
15385;SDS011;7791;47.246;9.648;2022-12-07T06:41:54;21.23;;;13.03;;
15385;SDS011;7791;47.246;9.648;2022-12-07T06:44:21;24.50;;;13.90;;
15385;SDS011;7791;47.246;9.648;2022-12-07T06:46:47;26.63;;;14.47;;
15385;SDS011;7791;47.246;9.648;2022-12-07T06:49:15;27.70;;;15.07;;
15385;SDS011;7791;47.246;9.648;2022-12-07T06:51:42;25.57;;;13.90;;
15385;SDS011;7791;47.246;9.648;2022-12-07T07:00:14;24.00;;;13.93;;
15385;SDS011;7791;47.246;9.648;2022-12-07T07:02:40;27.03;;;15.00;;
15385;SDS011;7791;47.246;9.648;2022-12-07T07:05:06;26.57;;;14.17;;
15385;SDS011;7791;47.246;9.648;2022-12-07T07:07:34;26.37;;;15.30;;
15385;SDS011;7791;47.246;9.648;2022-12-07T07:10:00;25.80;;;15.03;;
15385;SDS011;7791;47.246;9.648;2022-12-07T07:12:25;27.07;;;15.07;;
15385;SDS011;7791;47.246;9.648;2022-12-07T07:14:52;28.83;;;15.50;;
15385;SDS011;7791;47.246;9.648;2022-12-07T07:17:18;32.10;;;17.23;;
15385;SDS011;7791;47.246;9.648;2022-12-07T07:19:44;36.80;;;21.67;;
15385;SDS011;7791;47.246;9.648;2022-12-07T07:22:10;40.83;;;22.50;;
15385;SDS011;7791;47.246;9.648;2022-12-07T07:24:41;42.77;;;22.57;;
15385;SDS011;7791;47.246;9.648;2022-12-07T07:27:07;37.87;;;21.23;;
15385;SDS011;7791;47.246;9.648;2022-12-07T07:29:32;42.60;;;24.40;;
15385;SDS011;7791;47.246;9.648;2022-12-07T07:31:59;39.13;;;21.70;;
15385;SDS011;7791;47.246;9.648;2022-12-07T07:34:25;39.13;;;22.07;;
15385;SDS011;7791;47.246;9.648;2022-12-07T07:36:52;41.17;;;21.73;;
15385;SDS011;7791;47.246;9.648;2022-12-07T07:39:18;35.10;;;19.77;;
15385;SDS011;7791;47.246;9.648;2022-12-07T07:41:46;35.43;;;19.50;;
15385;SDS011;7791;47.246;9.648;2022-12-07T07:44:12;37.87;;;17.90;;
15385;SDS011;7791;47.246;9.648;2022-12-07T07:46:38;33.27;;;17.77;;
15385;SDS011;7791;47.246;9.648;2022-12-07T07:49:04;32.37;;;18.30;;
15385;SDS011;7791;47.246;9.648;2022-12-07T07:51:31;34.23;;;18.73;;
15385;SDS011;7791;47.246;9.648;2022-12-07T07:53:57;31.67;;;17.90;;
15385;SDS011;7791;47.246;9.648;2022-12-07T07:56:22;33.13;;;20.73;;
15385;SDS011;7791;47.246;9.648;2022-12-07T07:58:52;39.37;;;21.43;;
15385;SDS011;7791;47.246;9.648;2022-12-07T08:01:22;33.07;;;19.90;;
15385;SDS011;7791;47.246;9.648;2022-12-07T08:03:48;34.43;;;19.20;;
15385;SDS011;7791;47.246;9.648;2022-12-07T08:06:14;39.00;;;20.47;;
15385;SDS011;7791;47.246;9.648;2022-12-07T08:08:41;34.37;;;19.57;;
15385;SDS011;7791;47.246;9.648;2022-12-07T08:11:10;37.53;;;20.53;;
15385;SDS011;7791;47.246;9.648;2022-12-07T08:13:36;34.70;;;19.90;;
15385;SDS011;7791;47.246;9.648;2022-12-07T08:16:05;36.40;;;20.27;;
15385;SDS011;7791;47.246;9.648;2022-12-07T08:18:34;36.07;;;19.87;;
15385;SDS011;7791;47.246;9.648;2022-12-07T08:21:00;32.87;;;19.37;;
15385;SDS011;7791;47.246;9.648;2022-12-07T08:23:28;33.50;;;20.10;;
15385;SDS011;7791;47.246;9.648;2022-12-07T08:28:44;35.67;;;19.40;;
15385;SDS011;7791;47.246;9.648;2022-12-07T08:31:13;36.90;;;20.87;;
15385;SDS011;7791;47.246;9.648;2022-12-07T08:33:39;38.67;;;21.30;;
15385;SDS011;7791;47.246;9.648;2022-12-07T08:36:08;38.17;;;21.63;;
15385;SDS011;7791;47.246;9.648;2022-12-07T08:38:37;34.93;;;19.67;;
15385;SDS011;7791;47.246;9.648;2022-12-07T08:41:16;36.73;;;19.83;;
15385;SDS011;7791;47.246;9.648;2022-12-07T08:43:43;35.47;;;19.30;;
15385;SDS011;7791;47.246;9.648;2022-12-07T08:46:10;36.00;;;18.57;;
15385;SDS011;7791;47.246;9.648;2022-12-07T08:48:42;33.73;;;18.27;;
15385;SDS011;7791;47.246;9.648;2022-12-07T08:51:12;34.67;;;18.83;;
15385;SDS011;7791;47.246;9.648;2022-12-07T08:53:38;31.10;;;18.27;;
15385;SDS011;7791;47.246;9.648;2022-12-07T08:56:06;33.07;;;18.87;;
15385;SDS011;7791;47.246;9.648;2022-12-07T08:58:33;35.23;;;19.87;;
15385;SDS011;7791;47.246;9.648;2022-12-07T09:01:00;33.23;;;18.77;;
15385;SDS011;7791;47.246;9.648;2022-12-07T09:03:27;30.23;;;16.87;;
15385;SDS011;7791;47.246;9.648;2022-12-07T09:05:53;33.13;;;17.93;;
15385;SDS011;7791;47.246;9.648;2022-12-07T09:08:21;32.97;;;18.83;;
15385;SDS011;7791;47.246;9.648;2022-12-07T09:10:50;39.00;;;19.67;;
15385;SDS011;7791;47.246;9.648;2022-12-07T09:16:19;34.50;;;19.70;;
15385;SDS011;7791;47.246;9.648;2022-12-07T09:18:47;37.47;;;19.90;;
15385;SDS011;7791;47.246;9.648;2022-12-07T09:21:14;35.93;;;19.57;;
15385;SDS011;7791;47.246;9.648;2022-12-07T09:23:40;32.63;;;19.70;;
15385;SDS011;7791;47.246;9.648;2022-12-07T09:26:06;33.67;;;19.97;;
15385;SDS011;7791;47.246;9.648;2022-12-07T09:31:21;30.40;;;17.60;;
15385;SDS011;7791;47.246;9.648;2022-12-07T09:33:52;30.60;;;16.73;;
15385;SDS011;7791;47.246;9.648;2022-12-07T09:36:18;31.63;;;17.47;;
15385;SDS011;7791;47.246;9.648;2022-12-07T09:38:45;28.17;;;16.80;;
15385;SDS011;7791;47.246;9.648;2022-12-07T09:41:11;28.57;;;17.20;;
15385;SDS011;7791;47.246;9.648;2022-12-07T09:43:37;30.20;;;17.20;;
15385;SDS011;7791;47.246;9.648;2022-12-07T09:46:05;33.27;;;16.10;;
15385;SDS011;7791;47.246;9.648;2022-12-07T09:48:32;27.77;;;15.33;;
15385;SDS011;7791;47.246;9.648;2022-12-07T09:51:01;25.50;;;14.93;;
15385;SDS011;7791;47.246;9.648;2022-12-07T09:53:29;28.13;;;16.20;;
15385;SDS011;7791;47.246;9.648;2022-12-07T09:55:58;29.53;;;15.77;;
15385;SDS011;7791;47.246;9.648;2022-12-07T09:58:26;24.57;;;14.33;;
15385;SDS011;7791;47.246;9.648;2022-12-07T10:00:55;27.80;;;14.87;;
15385;SDS011;7791;47.246;9.648;2022-12-07T10:03:25;32.07;;;15.30;;
15385;SDS011;7791;47.246;9.648;2022-12-07T10:05:52;25.90;;;14.63;;
15385;SDS011;7791;47.246;9.648;2022-12-07T10:08:19;28.77;;;15.53;;
15385;SDS011;7791;47.246;9.648;2022-12-07T10:10:50;25.53;;;15.17;;
15385;SDS011;7791;47.246;9.648;2022-12-07T10:13:18;28.50;;;15.53;;
15385;SDS011;7791;47.246;9.648;2022-12-07T10:15:47;24.23;;;14.97;;
15385;SDS011;7791;47.246;9.648;2022-12-07T10:21:04;22.60;;;13.80;;
15385;SDS011;7791;47.246;9.648;2022-12-07T10:23:38;23.87;;;13.30;;
15385;SDS011;7791;47.246;9.648;2022-12-07T10:26:20;25.30;;;14.90;;
15385;SDS011;7791;47.246;9.648;2022-12-07T10:28:55;25.77;;;15.40;;
15385;SDS011;7791;47.246;9.648;2022-12-07T10:31:23;29.57;;;15.80;;
15385;SDS011;7791;47.246;9.648;2022-12-07T10:33:50;20.87;;;12.80;;
15385;SDS011;7791;47.246;9.648;2022-12-07T10:36:20;24.33;;;13.43;;
15385;SDS011;7791;47.246;9.648;2022-12-07T10:38:51;24.20;;;13.60;;
15385;SDS011;7791;47.246;9.648;2022-12-07T10:41:18;21.40;;;13.00;;
15385;SDS011;7791;47.246;9.648;2022-12-07T10:43:51;19.23;;;13.33;;
15385;SDS011;7791;47.246;9.648;2022-12-07T10:52:33;22.13;;;13.10;;
15385;SDS011;7791;47.246;9.648;2022-12-07T10:55:15;21.40;;;12.80;;
15385;SDS011;7791;47.246;9.648;2022-12-07T10:57:49;23.40;;;13.47;;
15385;SDS011;7791;47.246;9.648;2022-12-07T11:00:29;24.87;;;13.87;;
15385;SDS011;7791;47.246;9.648;2022-12-07T11:03:03;25.27;;;13.67;;
15385;SDS011;7791;47.246;9.648;2022-12-07T11:05:42;25.50;;;13.17;;
15385;SDS011;7791;47.246;9.648;2022-12-07T11:08:18;22.90;;;12.47;;
15385;SDS011;7791;47.246;9.648;2022-12-07T11:10:54;22.93;;;13.70;;
15385;SDS011;7791;47.246;9.648;2022-12-07T11:13:28;24.77;;;13.93;;
15385;SDS011;7791;47.246;9.648;2022-12-07T11:16:19;24.17;;;14.17;;
15385;SDS011;7791;47.246;9.648;2022-12-07T11:19:00;27.13;;;13.90;;
15385;SDS011;7791;47.246;9.648;2022-12-07T11:21:44;28.53;;;14.80;;
15385;SDS011;7791;47.246;9.648;2022-12-07T11:24:18;28.00;;;15.10;;
15385;SDS011;7791;47.246;9.648;2022-12-07T11:26:55;26.53;;;14.57;;
15385;SDS011;7791;47.246;9.648;2022-12-07T11:29:37;27.27;;;15.00;;
15385;SDS011;7791;47.246;9.648;2022-12-07T11:32:13;26.13;;;13.67;;
15385;SDS011;7791;47.246;9.648;2022-12-07T11:34:48;24.23;;;13.87;;
15385;SDS011;7791;47.246;9.648;2022-12-07T11:37:25;25.73;;;14.57;;
15385;SDS011;7791;47.246;9.648;2022-12-07T11:39:56;23.23;;;12.93;;
15385;SDS011;7791;47.246;9.648;2022-12-07T11:42:29;22.07;;;11.60;;
15385;SDS011;7791;47.246;9.648;2022-12-07T11:44:59;21.93;;;12.47;;
15385;SDS011;7791;47.246;9.648;2022-12-07T11:47:29;21.30;;;12.10;;
15385;SDS011;7791;47.246;9.648;2022-12-07T11:50:10;20.63;;;11.80;;
15385;SDS011;7791;47.246;9.648;2022-12-07T11:52:50;22.07;;;12.17;;
15385;SDS011;7791;47.246;9.648;2022-12-07T11:55:21;23.93;;;13.07;;
15385;SDS011;7791;47.246;9.648;2022-12-07T11:57:57;23.57;;;13.03;;
15385;SDS011;7791;47.246;9.648;2022-12-07T12:00:26;24.67;;;12.90;;
15385;SDS011;7791;47.246;9.648;2022-12-07T12:02:54;21.43;;;12.93;;
15385;SDS011;7791;47.246;9.648;2022-12-07T12:05:25;24.87;;;13.20;;
15385;SDS011;7791;47.246;9.648;2022-12-07T12:07:52;21.73;;;12.60;;
15385;SDS011;7791;47.246;9.648;2022-12-07T12:10:27;25.70;;;13.77;;
15385;SDS011;7791;47.246;9.648;2022-12-07T12:13:16;23.83;;;13.37;;
15385;SDS011;7791;47.246;9.648;2022-12-07T12:16:16;21.50;;;12.90;;
15385;SDS011;7791;47.246;9.648;2022-12-07T12:18:56;29.37;;;14.10;;
15385;SDS011;7791;47.246;9.648;2022-12-07T12:21:42;23.13;;;12.23;;
15385;SDS011;7791;47.246;9.648;2022-12-07T12:24:10;26.67;;;12.70;;
15385;SDS011;7791;47.246;9.648;2022-12-07T12:26:40;24.07;;;12.17;;
15385;SDS011;7791;47.246;9.648;2022-12-07T12:29:21;22.70;;;13.17;;
15385;SDS011;7791;47.246;9.648;2022-12-07T12:32:04;28.47;;;13.93;;
15385;SDS011;7791;47.246;9.648;2022-12-07T12:34:39;23.23;;;13.53;;
15385;SDS011;7791;47.246;9.648;2022-12-07T12:43:27;30.50;;;14.47;;
15385;SDS011;7791;47.246;9.648;2022-12-07T12:55:16;25.33;;;13.67;;
15385;SDS011;7791;47.246;9.648;2022-12-07T12:57:44;27.53;;;13.43;;
15385;SDS011;7791;47.246;9.648;2022-12-07T13:00:15;25.57;;;14.00;;
15385;SDS011;7791;47.246;9.648;2022-12-07T13:02:49;25.17;;;13.73;;
15385;SDS011;7791;47.246;9.648;2022-12-07T13:05:18;26.33;;;14.27;;
15385;SDS011;7791;47.246;9.648;2022-12-07T13:07:48;27.10;;;13.63;;
15385;SDS011;7791;47.246;9.648;2022-12-07T13:10:42;23.10;;;13.13;;
15385;SDS011;7791;47.246;9.648;2022-12-07T13:13:30;27.67;;;14.20;;
15385;SDS011;7791;47.246;9.648;2022-12-07T13:28:13;29.17;;;15.37;;
15385;SDS011;7791;47.246;9.648;2022-12-07T13:30:43;28.90;;;14.80;;
15385;SDS011;7791;47.246;9.648;2022-12-07T13:33:12;25.83;;;14.10;;
15385;SDS011;7791;47.246;9.648;2022-12-07T13:35:39;26.53;;;13.50;;
15385;SDS011;7791;47.246;9.648;2022-12-07T13:38:14;25.63;;;13.57;;
15385;SDS011;7791;47.246;9.648;2022-12-07T13:41:00;27.73;;;14.33;;
15385;SDS011;7791;47.246;9.648;2022-12-07T13:43:42;28.43;;;14.07;;
15385;SDS011;7791;47.246;9.648;2022-12-07T13:46:08;27.60;;;13.33;;
15385;SDS011;7791;47.246;9.648;2022-12-07T13:48:43;25.40;;;13.33;;
15385;SDS011;7791;47.246;9.648;2022-12-07T13:51:16;23.17;;;13.03;;
15385;SDS011;7791;47.246;9.648;2022-12-07T13:53:45;23.50;;;12.80;;
15385;SDS011;7791;47.246;9.648;2022-12-07T13:56:14;22.43;;;13.07;;
15385;SDS011;7791;47.246;9.648;2022-12-07T13:58:40;25.87;;;13.17;;
15385;SDS011;7791;47.246;9.648;2022-12-07T14:01:07;22.47;;;12.83;;
15385;SDS011;7791;47.246;9.648;2022-12-07T14:03:34;23.07;;;13.03;;
15385;SDS011;7791;47.246;9.648;2022-12-07T14:06:05;24.23;;;12.33;;
15385;SDS011;7791;47.246;9.648;2022-12-07T14:08:37;23.00;;;12.10;;
15385;SDS011;7791;47.246;9.648;2022-12-07T14:11:04;23.33;;;11.87;;
15385;SDS011;7791;47.246;9.648;2022-12-07T14:13:32;24.43;;;12.07;;
15385;SDS011;7791;47.246;9.648;2022-12-07T14:16:00;23.93;;;11.37;;
15385;SDS011;7791;47.246;9.648;2022-12-07T14:18:27;28.23;;;11.90;;
15385;SDS011;7791;47.246;9.648;2022-12-07T14:21:02;24.47;;;11.77;;
15385;SDS011;7791;47.246;9.648;2022-12-07T14:23:29;24.07;;;11.27;;
15385;SDS011;7791;47.246;9.648;2022-12-07T14:26:03;23.53;;;10.63;;
15385;SDS011;7791;47.246;9.648;2022-12-07T14:28:34;22.87;;;10.37;;
15385;SDS011;7791;47.246;9.648;2022-12-07T14:31:02;22.77;;;9.63;;
15385;SDS011;7791;47.246;9.648;2022-12-07T14:33:35;22.50;;;11.30;;
15385;SDS011;7791;47.246;9.648;2022-12-07T14:36:01;20.17;;;10.60;;
15385;SDS011;7791;47.246;9.648;2022-12-07T14:38:27;21.60;;;11.30;;
15385;SDS011;7791;47.246;9.648;2022-12-07T14:40:53;22.80;;;11.77;;
15385;SDS011;7791;47.246;9.648;2022-12-07T14:43:20;23.70;;;11.30;;
15385;SDS011;7791;47.246;9.648;2022-12-07T14:45:47;24.47;;;12.47;;
15385;SDS011;7791;47.246;9.648;2022-12-07T14:48:13;24.60;;;12.20;;
15385;SDS011;7791;47.246;9.648;2022-12-07T14:50:43;20.97;;;11.00;;
15385;SDS011;7791;47.246;9.648;2022-12-07T14:53:13;31.43;;;15.37;;
15385;SDS011;7791;47.246;9.648;2022-12-07T14:55:41;23.90;;;12.03;;
15385;SDS011;7791;47.246;9.648;2022-12-07T14:58:08;22.17;;;10.77;;
15385;SDS011;7791;47.246;9.648;2022-12-07T15:00:38;23.90;;;11.67;;
15385;SDS011;7791;47.246;9.648;2022-12-07T15:03:07;21.83;;;10.77;;
15385;SDS011;7791;47.246;9.648;2022-12-07T15:05:33;32.83;;;11.20;;
15385;SDS011;7791;47.246;9.648;2022-12-07T15:08:00;20.07;;;10.83;;
15385;SDS011;7791;47.246;9.648;2022-12-07T15:10:27;21.57;;;11.00;;
15385;SDS011;7791;47.246;9.648;2022-12-07T15:12:55;28.53;;;12.80;;
15385;SDS011;7791;47.246;9.648;2022-12-07T15:15:21;24.67;;;13.00;;
15385;SDS011;7791;47.246;9.648;2022-12-07T15:17:46;31.40;;;13.67;;
15385;SDS011;7791;47.246;9.648;2022-12-07T15:20:15;29.90;;;14.03;;
15385;SDS011;7791;47.246;9.648;2022-12-07T15:22:43;19.97;;;10.97;;
15385;SDS011;7791;47.246;9.648;2022-12-07T15:25:09;21.13;;;11.63;;
15385;SDS011;7791;47.246;9.648;2022-12-07T15:27:43;26.77;;;10.97;;
15385;SDS011;7791;47.246;9.648;2022-12-07T15:30:09;24.20;;;10.57;;
15385;SDS011;7791;47.246;9.648;2022-12-07T15:32:35;23.17;;;11.17;;
15385;SDS011;7791;47.246;9.648;2022-12-07T15:35:01;20.33;;;11.67;;
15385;SDS011;7791;47.246;9.648;2022-12-07T15:37:31;21.40;;;10.97;;
15385;SDS011;7791;47.246;9.648;2022-12-07T15:39:58;24.47;;;12.23;;
15385;SDS011;7791;47.246;9.648;2022-12-07T15:42:24;28.23;;;12.33;;
15385;SDS011;7791;47.246;9.648;2022-12-07T15:44:50;26.50;;;11.97;;
15385;SDS011;7791;47.246;9.648;2022-12-07T15:47:17;24.03;;;12.57;;
15385;SDS011;7791;47.246;9.648;2022-12-07T15:49:44;27.10;;;13.13;;
15385;SDS011;7791;47.246;9.648;2022-12-07T15:52:10;23.63;;;12.83;;
15385;SDS011;7791;47.246;9.648;2022-12-07T15:54:37;26.27;;;11.43;;
15385;SDS011;7791;47.246;9.648;2022-12-07T15:57:03;22.17;;;11.50;;
15385;SDS011;7791;47.246;9.648;2022-12-07T15:59:29;21.60;;;11.53;;
15385;SDS011;7791;47.246;9.648;2022-12-07T16:01:55;24.07;;;11.93;;
15385;SDS011;7791;47.246;9.648;2022-12-07T16:04:21;26.10;;;11.93;;
15385;SDS011;7791;47.246;9.648;2022-12-07T16:06:49;21.83;;;12.40;;
15385;SDS011;7791;47.246;9.648;2022-12-07T16:09:16;22.57;;;11.53;;
15385;SDS011;7791;47.246;9.648;2022-12-07T16:11:43;27.20;;;13.30;;